Time;durP1;ratioP1;P1;durP2;ratioP2;P2;SDS_P1;SDS_P2;PMS_P1;PMS_P2;Temp;Humidity;BMP_temperature;BMP_pressure;BME280_temperature;BME280_humidity;BME280_pressure;Samples;Min_cycle;Max_cycle;Signal;HPM_P1;HPM_P2
2022/12/17 13:06:11;;;;;;;42.17;24.42;;;;;;;-1.49;100.00;152177.38;5049356;28;20466;-75
2022/12/17 13:08:37;;;;;;;40.55;24.83;;;;;;;-1.44;100.00;152190.09;5039961;28;20028;-75
2022/12/17 13:11:26;;;;;;;39.83;23.52;;;;;;;-1.49;100.00;152177.38;5026266;28;20032;-75
2022/12/17 13:13:57;;;;;;;38.03;23.63;;;;;;;-1.52;100.00;152169.75;5059421;28;20046;-75
2022/12/17 13:16:50;;;;;;;37.75;22.10;;;;;;;-1.20;100.00;152249.91;5035730;28;20064;-75
2022/12/17 13:19:20;;;;;;;36.58;21.98;;;;;;;-1.06;100.00;152284.25;5051795;28;20036;-75
2022/12/17 13:21:46;;;;;;;31.48;21.88;;;;;;;-0.99;100.00;152302.06;5068713;28;20031;-75
2022/12/17 13:24:22;;;;;;;34.45;21.30;;;;;;;-0.32;100.00;152468.84;5050545;28;20572;-75
2022/12/17 13:26:48;;;;;;;32.80;20.48;;;;;;;0.31;100.00;152625.47;5042867;28;20489;-74
2022/12/17 13:29:30;;;;;;;32.58;20.42;;;;;;;0.40;100.00;152647.16;5050512;28;20035;-74
2022/12/17 13:32:49;;;;;;;31.63;19.25;;;;;;;0.44;99.62;152656.06;5048390;28;20047;-74
2022/12/17 13:35:51;;;;;;;32.58;18.73;;;;;;;0.31;99.27;152624.22;5041622;28;20043;-75
2022/12/17 13:38:25;;;;;;;28.67;18.08;;;;;;;0.16;99.66;152587.28;5047244;28;20032;-75
2022/12/17 13:41:08;;;;;;;28.08;17.80;;;;;;;0.02;100.00;152552.91;5031849;28;20786;-75
2022/12/17 13:43:47;;;;;;;27.23;17.98;;;;;;;-0.26;100.00;152482.84;5018613;28;20130;-75
2022/12/17 13:46:18;;;;;;;25.23;17.90;;;;;;;-0.48;100.00;152429.34;5025172;28;20038;-75
2022/12/17 13:48:55;;;;;;;30.42;17.58;;;;;;;-0.61;100.00;152396.25;5073036;28;20033;-75
2022/12/17 13:51:21;;;;;;;30.15;17.08;;;;;;;-0.83;100.00;152341.50;5041561;28;20055;-74
2022/12/17 13:53:53;;;;;;;28.95;17.30;;;;;;;-1.00;100.00;152300.81;5048616;28;20036;-75
2022/12/17 13:56:27;;;;;;;29.15;17.90;;;;;;;-1.00;100.00;152299.50;5043802;28;20443;-75
2022/12/17 13:58:55;;;;;;;36.30;18.80;;;;;;;-1.13;100.00;152266.44;5038083;28;20037;-75
2022/12/17 14:01:21;;;;;;;30.27;18.92;;;;;;;-1.11;100.00;152272.81;5050455;28;20052;-75
2022/12/17 14:03:50;;;;;;;28.20;18.10;;;;;;;-1.09;100.00;152277.91;5023503;28;20132;-75
2022/12/17 14:06:16;;;;;;;29.02;17.88;;;;;;;-1.10;100.00;152274.06;5034815;28;20029;-75
2022/12/17 14:08:43;;;;;;;32.65;17.58;;;;;;;-1.01;100.00;152298.25;5051331;28;20036;-75
2022/12/17 14:13:55;;;;;;;27.50;18.15;;;;;;;-1.02;100.00;152294.41;5031703;28;20737;-75
2022/12/17 14:16:21;;;;;;;30.85;17.58;;;;;;;-1.05;100.00;152288.06;5020960;28;20040;-74
2022/12/17 14:18:53;;;;;;;31.10;17.02;;;;;;;-1.09;100.00;152276.59;5038858;28;20383;-75
2022/12/17 14:21:20;;;;;;;29.57;16.57;;;;;;;-1.20;100.00;152249.91;5036237;28;20033;-74
2022/12/17 14:23:47;;;;;;;26.50;16.88;;;;;;;-1.55;100.00;152162.13;5042424;28;20442;-75
2022/12/17 14:26:13;;;;;;;28.05;16.48;;;;;;;-1.82;100.00;152097.25;5040714;28;20032;-74
2022/12/17 14:28:53;;;;;;;30.52;18.70;;;;;;;-2.06;100.00;152036.19;5059929;28;20036;-74
2022/12/17 14:31:27;;;;;;;28.30;17.90;;;;;;;-2.29;100.00;151979.00;5078398;28;20043;-75
2022/12/17 14:34:12;;;;;;;32.15;18.30;;;;;;;-2.48;100.00;151933.22;5054599;28;20044;-75
2022/12/17 14:36:40;;;;;;;28.88;18.00;;;;;;;-2.57;100.00;151910.34;5032043;28;20115;-75
2022/12/17 14:39:19;;;;;;;31.85;18.40;;;;;;;-2.68;100.00;151883.63;5056821;28;20462;-75
2022/12/17 14:44:30;;;;;;;32.25;17.42;;;;;;;-2.76;100.00;151864.56;5060960;28;20036;-74
2022/12/17 14:47:29;;;;;;;29.23;17.33;;;;;;;-2.85;100.00;151841.69;5054104;28;20036;-75
2022/12/17 14:50:07;;;;;;;31.20;17.17;;;;;;;-2.90;100.00;151827.72;5030318;28;20056;-74
2022/12/17 14:52:37;;;;;;;33.47;16.58;;;;;;;-3.00;100.00;151803.56;5075709;28;20426;-75
2022/12/17 14:55:21;;;;;;;32.95;17.50;;;;;;;-3.13;100.00;151771.81;5058113;28;20095;-75
2022/12/17 14:57:48;;;;;;;31.23;16.75;;;;;;;-3.29;100.00;151731.19;5033204;28;20036;-74
2022/12/17 15:00:14;;;;;;;30.05;17.45;;;;;;;-3.45;100.00;151693.03;5038399;28;20033;-75
2022/12/17 15:02:42;;;;;;;32.58;16.65;;;;;;;-3.53;100.00;151673.97;5071738;28;20040;-75
2022/12/17 15:05:15;;;;;;;38.22;17.45;;;;;;;-3.60;100.00;151656.25;5085673;28;20028;-75
2022/12/17 15:07:41;;;;;;;42.33;17.77;;;;;;;-3.68;100.00;151635.88;5039445;28;20035;-75
2022/12/17 15:10:15;;;;;;;30.40;16.85;;;;;;;-3.69;100.00;151633.38;5037326;28;20024;-76
2022/12/17 15:12:42;;;;;;;32.50;17.00;;;;;;;-3.68;100.00;151635.88;5038225;28;20044;-76
2022/12/17 15:15:12;;;;;;;30.98;17.30;;;;;;;-3.68;100.00;151634.63;5045249;28;20047;-76
2022/12/17 15:17:38;;;;;;;33.20;18.00;;;;;;;-3.57;100.00;151662.56;5018135;28;20028;-76
2022/12/17 15:20:04;;;;;;;32.95;16.08;;;;;;;-3.66;100.00;151640.97;5050793;28;20040;-76
2022/12/17 15:22:29;;;;;;;32.90;16.50;;;;;;;-3.72;100.00;151627.00;5039495;28;20028;-76
2022/12/17 15:24:55;;;;;;;31.75;16.67;;;;;;;-3.86;100.00;151591.47;5069872;28;20038;-76
2022/12/17 15:27:21;;;;;;;30.95;17.45;;;;;;;-3.99;100.00;151559.72;5036630;28;20040;-76
2022/12/17 15:29:46;;;;;;;37.67;19.02;;;;;;;-3.99;100.00;151559.72;5055226;28;20126;-75
2022/12/17 15:32:20;;;;;;;35.55;19.02;;;;;;;-4.02;100.00;151552.06;5049473;28;20044;-75
2022/12/17 15:34:46;;;;;;;37.38;19.42;;;;;;;-4.07;100.00;151539.38;5055468;28;20115;-76
2022/12/17 15:37:12;;;;;;;35.40;18.40;;;;;;;-4.11;100.00;151529.22;5057823;28;20146;-76
2022/12/17 15:39:38;;;;;;;37.72;17.95;;;;;;;-4.15;100.00;151519.06;5054652;28;20522;-76
2022/12/17 15:44:47;;;;;;;35.08;17.50;;;;;;;-4.27;100.00;151488.63;5045018;28;20028;-76
2022/12/17 15:47:13;;;;;;;34.40;17.83;;;;;;;-4.30;100.00;151483.50;5054387;28;20500;-77
2022/12/17 15:49:39;;;;;;;33.45;17.77;;;;;;;-4.34;100.00;151473.38;5048037;28;20482;-76
2022/12/17 15:52:05;;;;;;;38.30;17.33;;;;;;;-4.27;100.00;151488.63;5040419;28;20506;-76
2022/12/17 15:54:31;;;;;;;30.63;17.40;;;;;;;-4.25;100.00;151494.97;5056077;28;20394;-76
2022/12/17 15:56:57;;;;;;;35.92;17.50;;;;;;;-4.25;100.00;151494.97;5031886;28;20043;-75
2022/12/17 15:59:23;;;;;;;36.28;17.13;;;;;;;-4.19;100.00;151508.94;5052156;28;20534;-76
2022/12/17 16:01:48;;;;;;;30.23;16.38;;;;;;;-4.20;100.00;151507.66;5034790;28;20035;-76
2022/12/17 16:04:14;;;;;;;29.75;16.80;;;;;;;-4.18;100.00;151512.75;5047022;28;20440;-76
2022/12/17 16:06:40;;;;;;;32.03;16.02;;;;;;;-4.21;100.00;151505.09;5035212;28;20042;-76
2022/12/17 16:09:06;;;;;;;34.95;16.92;;;;;;;-4.31;100.00;151481.00;5037825;28;20044;-76
2022/12/17 16:11:31;;;;;;;34.60;16.77;;;;;;;-4.44;100.00;151448.00;5034543;28;20036;-76
2022/12/17 16:13:57;;;;;;;33.88;16.23;;;;;;;-4.41;100.00;151454.31;5037650;28;20078;-76
2022/12/17 16:16:23;;;;;;;34.00;17.35;;;;;;;-4.43;100.00;151450.50;5035505;28;20086;-76
2022/12/17 16:18:49;;;;;;;33.97;17.10;;;;;;;-4.46;100.00;151441.63;5035785;28;20044;-76
2022/12/17 16:21:14;;;;;;;30.52;16.48;;;;;;;-4.55;100.00;151420.06;5041850;28;20553;-76
2022/12/17 16:23:42;;;;;;;30.63;17.60;;;;;;;-4.57;100.00;151416.25;5043349;28;20044;-76
2022/12/17 16:26:09;;;;;;;36.05;18.25;;;;;;;-4.41;100.00;151454.31;5076861;28;20899;-76
2022/12/17 16:28:35;;;;;;;41.22;19.50;;;;;;;-4.39;100.00;151459.41;5038896;28;20041;-76
2022/12/17 16:31:04;;;;;;;38.72;19.40;;;;;;;-4.41;100.00;151455.59;5035375;28;20089;-75
2022/12/17 16:33:32;;;;;;;38.78;19.45;;;;;;;-4.45;100.00;151444.19;5044464;28;20512;-75
2022/12/17 16:35:57;;;;;;;37.17;18.83;;;;;;;-4.44;100.00;151448.00;5081612;28;20084;-76
2022/12/17 16:38:23;;;;;;;38.53;20.10;;;;;;;-4.47;100.00;151439.09;5077156;28;20036;-76
2022/12/17 16:40:53;;;;;;;41.05;18.48;;;;;;;-4.52;100.00;151427.66;5055492;28;20612;-76
2022/12/17 16:43:19;;;;;;;35.05;18.67;;;;;;;-4.57;100.00;151416.25;5017414;28;20040;-76
2022/12/17 16:45:48;;;;;;;40.25;19.83;;;;;;;-4.61;100.00;151406.13;5058707;28;20081;-76
2022/12/17 16:48:16;;;;;;;42.33;19.58;;;;;;;-4.65;100.00;151394.66;5040185;28;20482;-75
2022/12/17 16:50:42;;;;;;;37.67;19.58;;;;;;;-4.64;100.00;151397.22;5049878;28;20039;-76
2022/12/17 16:53:07;;;;;;;39.67;20.13;;;;;;;-4.63;100.00;151399.75;5057765;28;20583;-76
2022/12/17 16:55:45;;;;;;;32.97;18.45;;;;;;;-4.64;100.00;151398.47;5023384;28;20032;-76
2022/12/17 16:58:12;;;;;;;37.13;18.80;;;;;;;-4.63;100.00;151399.75;5061101;28;20040;-75
2022/12/17 17:00:38;;;;;;;40.60;18.35;;;;;;;-4.59;100.00;151409.94;5047804;28;20044;-76
2022/12/17 17:03:05;;;;;;;37.08;18.77;;;;;;;-4.55;100.00;151421.34;5042772;28;20122;-76
2022/12/17 17:05:32;;;;;;;34.75;18.52;;;;;;;-4.62;100.00;151403.56;5057492;28;20033;-76
2022/12/17 17:07:58;;;;;;;31.60;17.27;;;;;;;-4.74;100.00;151373.13;5036929;28;20413;-76
2022/12/17 17:10:24;;;;;;;37.33;17.77;;;;;;;-4.88;100.00;151338.84;5044352;28;20514;-76
2022/12/17 17:12:53;;;;;;;35.05;17.75;;;;;;;-4.96;100.00;151319.81;5065119;28;20071;-76
2022/12/17 17:15:21;;;;;;;35.42;17.50;;;;;;;-5.09;100.00;151288.06;5067821;28;20037;-76
2022/12/17 17:17:47;;;;;;;35.50;17.67;;;;;;;-5.05;100.00;151295.72;5050917;28;20040;-76
2022/12/17 17:20:14;;;;;;;39.47;17.27;;;;;;;-5.05;100.00;151295.72;5027927;28;20094;-76
2022/12/17 17:22:39;;;;;;;33.03;17.13;;;;;;;-5.09;100.00;151288.06;5063147;28;20024;-76
2022/12/17 17:25:06;;;;;;;39.50;17.95;;;;;;;-5.09;100.00;151288.06;5058421;28;20035;-76
2022/12/17 17:27:31;;;;;;;31.23;17.02;;;;;;;-5.11;100.00;151283.00;5083114;28;20040;-76
2022/12/17 17:29:57;;;;;;;37.03;18.30;;;;;;;-5.19;100.00;151261.47;5052843;28;20509;-76
2022/12/17 17:32:23;;;;;;;30.05;17.48;;;;;;;-5.12;100.00;151279.25;5053483;28;20055;-76
2022/12/17 17:34:49;;;;;;;33.30;17.75;;;;;;;-5.12;100.00;151279.25;5081143;28;20038;-76
2022/12/17 17:37:15;;;;;;;37.30;18.40;;;;;;;-5.17;100.00;151266.53;5052705;28;20028;-76
2022/12/17 17:39:41;;;;;;;31.23;16.50;;;;;;;-5.26;100.00;151243.72;5037514;28;20052;-76
2022/12/17 17:42:07;;;;;;;33.13;16.48;;;;;;;-5.36;100.00;151220.88;5072942;28;20038;-76
2022/12/17 17:44:33;;;;;;;30.98;17.35;;;;;;;-5.43;100.00;151203.09;5064361;28;20107;-76
2022/12/17 17:46:59;;;;;;;37.95;17.58;;;;;;;-5.45;100.00;151198.03;5064010;28;20398;-76
2022/12/17 17:49:25;;;;;;;31.98;16.80;;;;;;;-5.52;100.00;151181.56;5046169;28;20045;-76
2022/12/17 17:51:50;;;;;;;41.30;18.50;;;;;;;-5.56;100.00;151171.41;5053656;28;20039;-76
2022/12/17 17:54:16;;;;;;;34.22;17.10;;;;;;;-5.63;100.00;151153.69;5076184;28;20481;-76
2022/12/17 17:56:42;;;;;;;36.70;17.60;;;;;;;-5.59;100.00;151162.56;5039012;28;20489;-76
2022/12/17 17:59:14;;;;;;;36.55;17.67;;;;;;;-5.69;100.00;151139.72;5036571;28;20043;-76
2022/12/17 18:01:50;;;;;;;38.03;17.10;;;;;;;-5.72;100.00;151132.09;5036870;28;20059;-76
2022/12/17 18:04:19;;;;;;;38.03;17.85;;;;;;;-5.60;100.00;151160.00;5033729;28;20048;-76
2022/12/17 18:06:46;;;;;;;38.58;18.48;;;;;;;-5.55;100.00;151173.94;5022051;28;20159;-76
2022/12/17 18:09:12;;;;;;;34.45;17.48;;;;;;;-5.59;100.00;151162.56;5038369;28;20036;-76
2022/12/17 18:11:39;;;;;;;40.35;18.58;;;;;;;-5.59;100.00;151162.56;5033390;28;20037;-76
2022/12/17 18:14:06;;;;;;;35.30;18.17;;;;;;;-5.65;100.00;151148.59;5027635;28;20508;-76
2022/12/17 18:16:36;;;;;;;37.70;18.13;;;;;;;-5.74;100.00;151127.03;5017649;28;20101;-76
2022/12/17 18:19:11;;;;;;;38.92;18.42;;;;;;;-5.85;100.00;151097.88;5053472;28;20056;-76
2022/12/17 18:21:37;;;;;;;43.83;20.02;;;;;;;-5.97;100.00;151070.03;5069449;28;20477;-76
2022/12/17 18:24:05;;;;;;;50.08;22.13;;;;;;;-6.08;100.00;151042.16;5041041;28;20032;-75
2022/12/17 18:26:38;;;;;;;64.65;26.63;;;;;;;-6.21;100.00;151010.47;5034320;28;20436;-76
2022/12/17 18:29:07;;;;;;;;;;;;;;;-6.30;100.00;150987.63;5035337;28;20036;-75
2022/12/17 18:31:33;;;;;;;62.78;25.55;;;;;;;-6.44;100.00;150952.13;5058999;28;19913;-75
2022/12/17 18:34:01;;;;;;;48.90;22.63;;;;;;;-6.50;100.00;150938.19;5050507;28;20085;-75
2022/12/17 18:36:31;;;;;;;46.90;21.25;;;;;;;-6.55;100.00;150926.81;5057040;28;20094;-76
2022/12/17 18:38:59;;;;;;;48.28;22.25;;;;;;;-6.65;100.00;150901.44;5054985;28;20036;-76
2022/12/17 18:44:11;;;;;;;42.95;21.33;;;;;;;-6.71;100.00;150886.25;5039113;28;20089;-75
2022/12/17 18:46:37;;;;;;;40.80;19.65;;;;;;;-6.63;100.00;150906.50;5049066;28;20024;-75
2022/12/17 18:49:06;;;;;;;44.45;20.27;;;;;;;-6.53;100.00;150930.63;5071988;28;20036;-75
2022/12/17 18:51:33;;;;;;;41.72;19.52;;;;;;;-6.49;100.00;150940.75;5058345;28;20047;-75
2022/12/17 18:54:00;;;;;;;40.97;18.90;;;;;;;-6.51;100.00;150936.94;5061275;28;20032;-75
2022/12/17 18:56:28;;;;;;;51.58;24.85;;;;;;;-6.53;100.00;150930.63;5049583;28;20043;-75
2022/12/17 18:58:57;;;;;;;60.33;34.15;;;;;;;-6.65;100.00;150901.44;5052364;28;20047;-75
2022/12/17 19:01:27;;;;;;;53.85;24.42;;;;;;;-6.82;100.00;150858.38;5043437;28;20041;-75
2022/12/17 19:03:54;;;;;;;49.35;24.00;;;;;;;-6.89;100.00;150841.94;5028810;28;20261;-75
2022/12/17 19:06:21;;;;;;;46.63;22.92;;;;;;;-6.92;100.00;150835.56;5019290;28;20426;-75
2022/12/17 19:08:47;;;;;;;46.47;22.40;;;;;;;-6.99;100.00;150816.59;5038960;28;20036;-75
2022/12/17 19:11:17;;;;;;;52.15;24.38;;;;;;;-6.85;100.00;150852.06;5044669;28;20035;-75
2022/12/17 19:13:44;;;;;;;49.47;22.60;;;;;;;-6.89;100.00;150841.94;5040717;28;20036;-75
2022/12/17 19:16:13;;;;;;;65.13;31.25;;;;;;;-6.88;100.00;150844.44;5043612;28;20539;-75
2022/12/17 19:18:39;;;;;;;70.22;31.38;;;;;;;-6.90;100.00;150840.66;5047387;28;20119;-75
2022/12/17 19:21:06;;;;;;;67.10;30.73;;;;;;;-6.93;100.00;150831.78;5028778;28;20066;-75
2022/12/17 19:23:32;;;;;;;178.93;52.10;;;;;;;-6.90;100.00;150839.38;5014126;28;20497;-75
2022/12/17 19:26:11;;;;;;;200.90;55.03;;;;;;;-6.83;100.00;150855.88;5032993;28;20047;-75
2022/12/17 19:28:39;;;;;;;624.35;163.75;;;;;;;-6.79;100.00;150866.00;5023276;28;20044;-75
2022/12/17 19:31:05;;;;;;;195.43;57.13;;;;;;;-6.84;100.00;150854.59;5024620;28;20047;-75
2022/12/17 19:33:31;;;;;;;228.23;58.17;;;;;;;-6.97;100.00;150821.66;5062059;28;20036;-74
2022/12/17 19:36:04;;;;;;;256.67;63.47;;;;;;;-7.10;100.00;150789.97;5065013;28;20032;-75
2022/12/17 19:38:31;;;;;;;285.60;71.95;;;;;;;-7.21;100.00;150762.09;5026406;28;20047;-75
2022/12/17 19:41:02;;;;;;;121.38;38.88;;;;;;;-7.31;100.00;150738.06;5043362;28;20412;-74
2022/12/17 19:43:28;;;;;;;83.80;42.25;;;;;;;-7.30;100.00;150740.63;5025531;28;20040;-75
2022/12/17 19:46:00;;;;;;;79.22;35.78;;;;;;;-7.29;100.00;150744.41;5043122;28;20040;-75
2022/12/17 19:48:25;;;;;;;72.13;31.50;;;;;;;-7.23;100.00;150758.34;5056370;28;20414;-75
2022/12/17 19:50:56;;;;;;;69.47;29.58;;;;;;;-7.37;100.00;150722.88;5046670;28;20040;-74
2022/12/17 19:53:26;;;;;;;60.42;27.95;;;;;;;-7.50;100.00;150691.22;5042567;28;20035;-75
2022/12/17 19:55:56;;;;;;;66.78;28.58;;;;;;;-7.41;100.00;150714.00;5032214;28;20048;-75
2022/12/17 19:58:23;;;;;;;58.95;26.95;;;;;;;-7.50;100.00;150692.47;5061603;28;20051;-74
2022/12/17 20:00:50;;;;;;;63.53;28.38;;;;;;;-7.57;100.00;150673.47;5029281;28;20055;-75
2022/12/17 20:03:16;;;;;;;70.07;29.25;;;;;;;-7.66;100.00;150652.00;5028634;28;20032;-75
2022/12/17 20:05:45;;;;;;;69.30;30.63;;;;;;;-7.64;100.00;150657.03;5030467;28;20040;-75
2022/12/17 20:08:12;;;;;;;70.05;28.70;;;;;;;-7.58;100.00;150672.22;5051483;28;20039;-74
2022/12/17 20:10:38;;;;;;;62.40;28.55;;;;;;;-7.47;100.00;150698.81;5034907;28;20037;-75
2022/12/17 20:13:04;;;;;;;66.68;29.60;;;;;;;-7.52;100.00;150687.41;5045829;28;20113;-75
2022/12/17 20:15:29;;;;;;;74.57;28.70;;;;;;;-7.56;100.00;150677.28;5023871;28;20398;-75
2022/12/17 20:17:55;;;;;;;73.57;29.58;;;;;;;-7.58;100.00;150672.22;5027956;28;20543;-75
2022/12/17 20:20:21;;;;;;;100.05;36.42;;;;;;;-7.50;100.00;150692.47;5047886;28;20028;-75
2022/12/17 20:22:46;;;;;;;138.98;46.72;;;;;;;-7.59;100.00;150668.41;5042278;28;20068;-75
2022/12/17 20:25:12;;;;;;;112.35;41.08;;;;;;;-7.80;100.00;150616.53;5027132;28;20035;-74
2022/12/17 20:27:50;;;;;;;58.95;26.98;;;;;;;-7.99;100.00;150570.94;5029267;28;20098;-74
2022/12/17 20:30:16;;;;;;;53.95;25.08;;;;;;;-7.98;100.00;150572.25;5044396;28;20058;-74
2022/12/17 20:32:43;;;;;;;63.92;26.27;;;;;;;-8.23;100.00;150512.75;5042456;28;20491;-74
2022/12/17 20:35:09;;;;;;;57.75;25.15;;;;;;;-8.36;100.00;150478.56;5015523;28;20104;-74
2022/12/17 20:37:35;;;;;;;67.35;26.65;;;;;;;-8.28;100.00;150498.84;5003777;28;20127;-75
2022/12/17 20:40:12;;;;;;;72.57;27.98;;;;;;;-8.35;100.00;150482.38;5042203;28;20048;-74
2022/12/17 20:42:40;;;;;;;63.85;24.58;;;;;;;-8.20;100.00;150517.81;5024910;28;20032;-74
2022/12/17 20:45:10;;;;;;;65.75;26.08;;;;;;;-8.30;100.00;150493.78;5023075;28;20021;-74
2022/12/17 20:47:35;;;;;;;80.30;30.45;;;;;;;-8.31;100.00;150492.47;5030197;28;20120;-74
2022/12/17 20:50:02;;;;;;;79.40;29.25;;;;;;;-8.54;100.00;150434.34;5027269;28;20036;-74
2022/12/17 20:52:28;;;;;;;81.55;30.85;;;;;;;-8.47;100.00;150452.09;5026604;28;20098;-75
2022/12/17 20:54:53;;;;;;;65.47;27.65;;;;;;;-8.44;100.00;150460.94;5027223;28;20059;-73
2022/12/17 20:57:19;;;;;;;68.60;26.58;;;;;;;-8.44;100.00;150459.63;5014333;28;20080;-74
2022/12/17 20:59:45;;;;;;;60.60;24.48;;;;;;;-8.42;100.00;150466.00;5025061;28;20057;-75
2022/12/17 21:02:13;;;;;;;64.53;26.33;;;;;;;-8.57;100.00;150426.75;5027990;28;20054;-74
2022/12/17 21:04:40;;;;;;;67.88;26.90;;;;;;;-8.58;100.00;150425.50;5014090;28;20112;-75
2022/12/17 21:07:08;;;;;;;75.72;30.83;;;;;;;-8.59;100.00;150422.94;5019808;28;20048;-74
2022/12/17 21:09:34;;;;;;;74.40;30.23;;;;;;;-8.52;100.00;150440.66;5016113;28;20179;-75
2022/12/17 21:12:01;;;;;;;66.95;27.52;;;;;;;-8.69;100.00;150398.91;5041787;28;20103;-75
2022/12/17 21:14:35;;;;;;;78.15;28.95;;;;;;;-8.72;100.00;150390.06;5009381;28;20036;-75
2022/12/17 21:17:02;;;;;;;70.93;27.05;;;;;;;-8.71;100.00;150392.63;5025250;28;20043;-75
2022/12/17 21:19:28;;;;;;;66.65;27.25;;;;;;;-8.65;100.00;150407.78;5063248;28;20032;-75
2022/12/17 21:21:54;;;;;;;57.65;25.23;;;;;;;-8.73;100.00;150387.56;5042302;28;20181;-75
2022/12/17 21:24:20;;;;;;;63.70;24.27;;;;;;;-8.90;100.00;150347.06;5028820;28;20064;-75
2022/12/17 21:26:49;;;;;;;67.57;25.30;;;;;;;-8.74;100.00;150386.25;5024941;28;20040;-75
2022/12/17 21:29:16;;;;;;;67.57;24.98;;;;;;;-8.70;100.00;150395.13;5027292;28;20036;-75
2022/12/17 21:31:51;;;;;;;54.97;23.13;;;;;;;-8.72;100.00;150390.06;5009273;28;20097;-75
2022/12/17 21:34:42;;;;;;;58.42;22.00;;;;;;;-8.58;100.00;150425.50;5033959;28;20123;-75
2022/12/17 21:37:18;;;;;;;56.15;22.92;;;;;;;-8.79;100.00;150373.66;5028767;28;20036;-75
2022/12/17 21:39:46;;;;;;;61.15;23.42;;;;;;;-8.60;100.00;150420.44;5061262;28;20040;-75
2022/12/17 21:44:57;;;;;;;53.65;22.80;;;;;;;-8.71;100.00;150392.63;5045840;28;20036;-75
2022/12/17 21:47:23;;;;;;;52.28;21.50;;;;;;;-8.74;100.00;150385.00;5013166;28;20036;-75
2022/12/17 21:49:49;;;;;;;55.38;22.83;;;;;;;-8.80;100.00;150371.09;5032677;28;20032;-76
2022/12/17 21:52:15;;;;;;;51.83;22.08;;;;;;;-8.84;100.00;150361.00;5015620;28;20036;-75
2022/12/17 21:54:41;;;;;;;47.97;22.23;;;;;;;-8.89;100.00;150349.63;5030187;28;20048;-75
2022/12/17 21:57:07;;;;;;;52.65;22.30;;;;;;;-8.97;100.00;150329.34;5029765;28;20052;-75
2022/12/17 21:59:33;;;;;;;45.72;21.67;;;;;;;-8.92;100.00;150340.78;5045835;28;20039;-75
2022/12/17 22:02:02;;;;;;;50.05;22.42;;;;;;;-9.20;100.00;150272.47;5042057;28;20067;-75
2022/12/17 22:04:28;;;;;;;54.55;22.38;;;;;;;-8.98;100.00;150325.56;5044127;28;20815;-75
2022/12/17 22:06:54;;;;;;;49.78;21.73;;;;;;;-9.21;100.00;150271.22;5033137;28;20106;-75
2022/12/17 22:09:21;;;;;;;51.95;22.10;;;;;;;-8.93;100.00;150338.22;5021102;28;20162;-75
2022/12/17 22:11:47;;;;;;;49.78;21.30;;;;;;;-9.08;100.00;150302.84;5026928;28;20044;-75
2022/12/17 22:14:18;;;;;;;47.15;20.23;;;;;;;-9.13;100.00;150290.19;5003639;28;20119;-75
2022/12/17 22:16:47;;;;;;;39.88;20.08;;;;;;;-9.01;100.00;150319.25;5026481;28;20055;-75
2022/12/17 22:19:18;;;;;;;44.65;20.05;;;;;;;-9.02;100.00;150316.75;5028604;28;20521;-74
2022/12/17 22:21:49;;;;;;;46.00;20.83;;;;;;;-9.10;100.00;150296.50;5024793;28;20040;-74
2022/12/17 22:24:18;;;;;;;44.90;19.70;;;;;;;-9.16;100.00;150282.56;5025164;28;20067;-74
2022/12/17 22:26:47;;;;;;;41.92;19.67;;;;;;;-9.23;100.00;150266.16;5015512;28;20025;-74
2022/12/17 22:32:58;;;;;;;42.38;18.58;;;;;;;-9.35;100.00;150235.81;5026462;28;20058;-74
2022/12/17 22:34:47;;;;;;;44.38;20.08;;;;;;;-9.16;100.00;150281.31;5043940;28;20044;-79
2022/12/17 22:37:13;;;;;;;47.88;22.23;;;;;;;-9.18;100.00;150277.53;5010215;28;20025;-74
2022/12/17 22:39:42;;;;;;;44.50;20.92;;;;;;;-9.29;100.00;150249.72;5025504;28;20122;-74
2022/12/17 22:44:53;;;;;;;44.03;21.10;;;;;;;-9.29;100.00;150249.72;5060311;28;20047;-74
2022/12/17 22:47:20;;;;;;;54.90;23.23;;;;;;;-9.63;100.00;150167.53;5025505;28;20048;-74
2022/12/17 22:49:47;;;;;;;43.50;20.48;;;;;;;-9.69;100.00;150152.38;5012508;28;20125;-74
2022/12/17 22:52:16;;;;;;;42.10;20.30;;;;;;;-9.37;100.00;150230.75;5026287;28;20036;-75
2022/12/17 22:54:42;;;;;;;43.35;20.60;;;;;;;-9.48;100.00;150202.94;5060788;28;20032;-75
2022/12/17 22:57:08;;;;;;;49.05;21.65;;;;;;;-9.49;100.00;150200.38;5023584;28;20032;-77
2022/12/17 22:59:35;;;;;;;43.33;19.98;;;;;;;-9.71;100.00;150146.06;5026589;28;20044;-75
2022/12/17 23:02:01;;;;;;;44.03;19.88;;;;;;;-9.54;100.00;150187.78;5045049;28;20139;-75
2022/12/17 23:04:48;;;;;;;41.58;19.42;;;;;;;-9.65;100.00;150161.22;5015241;28;20124;-75
2022/12/17 23:07:18;;;;;;;40.75;19.25;;;;;;;-9.48;100.00;150202.94;5027539;28;20114;-77
2022/12/17 23:09:43;;;;;;;41.65;19.15;;;;;;;-9.56;100.00;150183.97;5026075;28;20040;-75
2022/12/17 23:14:53;;;;;;;47.55;17.95;;;;;;;-9.52;100.00;150192.84;5045515;28;20036;-76
2022/12/17 23:17:19;;;;;;;39.00;18.92;;;;;;;-9.53;100.00;150190.28;5042260;28;20035;-75
2022/12/17 23:19:45;;;;;;;42.95;18.75;;;;;;;-9.53;100.00;150190.28;5038395;28;20033;-76
2022/12/17 23:22:11;;;;;;;36.95;16.80;;;;;;;-9.56;100.00;150182.72;5023232;28;20040;-75
2022/12/17 23:24:37;;;;;;;37.75;16.98;;;;;;;-9.47;100.00;150206.75;5011661;28;20044;-74
2022/12/17 23:27:03;;;;;;;39.45;17.10;;;;;;;-9.43;100.00;150216.84;5040421;28;20044;-76
2022/12/17 23:29:30;;;;;;;43.50;17.80;;;;;;;-9.45;100.00;150211.78;5013966;28;20223;-74
2022/12/17 23:31:56;;;;;;;36.67;17.85;;;;;;;-9.41;100.00;150221.91;5024071;28;20043;-75
2022/12/17 23:34:21;;;;;;;40.80;17.83;;;;;;;-9.35;100.00;150235.81;5029414;28;20109;-75
2022/12/17 23:36:47;;;;;;;37.95;17.65;;;;;;;-9.33;100.00;150239.59;5042921;28;20170;-75
2022/12/17 23:39:14;;;;;;;35.33;16.85;;;;;;;-9.29;100.00;150250.97;5044274;28;20494;-75
2022/12/17 23:41:40;;;;;;;38.75;17.48;;;;;;;-9.25;100.00;150259.81;5042185;28;20035;-73
2022/12/17 23:44:06;;;;;;;30.85;15.82;;;;;;;-9.06;100.00;150306.59;5027588;28;20048;-74
2022/12/17 23:46:32;;;;;;;37.45;17.15;;;;;;;-8.97;100.00;150328.09;5022108;28;20092;-75
2022/12/17 23:48:57;;;;;;;38.40;16.77;;;;;;;-8.87;100.00;150353.38;5008908;28;20032;-77
2022/12/17 23:51:26;;;;;;;38.92;17.02;;;;;;;-8.76;100.00;150379.94;5040932;28;20082;-74
2022/12/17 23:53:52;;;;;;;39.33;17.40;;;;;;;-8.69;100.00;150398.91;5043595;28;20036;-74
2022/12/17 23:56:21;;;;;;;32.72;16.65;;;;;;;-8.94;100.00;150335.72;5022332;28;20552;-74
2022/12/17 23:58:50;;;;;;;33.58;15.85;;;;;;;-9.08;100.00;150302.84;5056327;28;20498;-75
